createdAt,value
2022-09-28T00:00:56.563Z,99247.13
2022-09-28T00:02:28.626Z,99246.38
2022-09-28T00:04:00.641Z,99245.63
2022-09-28T00:05:32.746Z,99236.13
2022-09-28T00:07:04.193Z,99234.53
2022-09-28T00:08:36.013Z,99243.25
2022-09-28T00:10:08.157Z,99246.91
2022-09-28T00:11:40.033Z,99247.66
2022-09-28T00:13:12.878Z,99242.22
2022-09-28T00:14:44.776Z,99240.38
2022-09-28T00:16:17.543Z,99235.94
2022-09-28T00:17:48.992Z,99240.38
2022-09-28T00:19:20.462Z,99243.09
2022-09-28T00:20:59.477Z,99246.81
2022-09-28T00:22:31.117Z,99241.75
2022-09-28T00:24:12.488Z,99236.56
2022-09-28T00:25:43.904Z,99230.38
2022-09-28T00:27:15.340Z,99236.56
2022-09-28T00:28:50.883Z,99232.28
2022-09-28T00:30:22.501Z,99235.00
2022-09-28T00:31:59.708Z,99229.94
2022-09-28T00:33:31.321Z,99236.03
2022-09-28T00:35:02.777Z,99229.84
2022-09-28T00:36:34.832Z,99227.97
2022-09-28T00:38:09.217Z,99238.47
2022-09-28T00:39:44.295Z,99220.94
2022-09-28T00:41:16.342Z,99227.97
2022-09-28T00:42:47.798Z,99221.47
2022-09-28T00:44:43.287Z,99214.25
2022-09-28T00:46:17.836Z,99218.47
2022-09-28T00:47:51.913Z,99205.44
2022-09-28T00:49:28.654Z,99216.88
2022-09-28T00:51:02.152Z,99216.13
2022-09-28T00:52:36.070Z,99203.91
2022-09-28T00:54:08.732Z,99211.78
2022-09-28T00:55:43.062Z,99211.34
2022-09-28T00:57:15.339Z,99212.34
2022-09-28T00:58:48.367Z,99201.66
2022-09-28T01:00:19.825Z,99199.59
2022-09-28T01:01:52.862Z,99197.72
2022-09-28T01:03:24.497Z,99194.16
2022-09-28T01:04:57.639Z,99196.69
2022-09-28T01:06:31.025Z,99207.19
2022-09-28T01:08:03.222Z,99208.59
2022-09-28T01:09:36.590Z,99212.44
2022-09-28T01:11:08.587Z,99210.06
2022-09-28T01:12:40.028Z,99204.97
2022-09-28T01:14:14.844Z,99210.22
2022-09-28T01:15:53.263Z,99211.75
2022-09-28T01:17:30.468Z,99213.44
2022-09-28T01:19:12.760Z,99215.72
2022-09-28T01:20:59.152Z,99214.41
2022-09-28T01:22:35.004Z,99220.16
2022-09-28T01:24:19.712Z,99217.44
2022-09-28T01:25:53.777Z,99211.22
2022-09-28T01:27:28.502Z,99219.94
2022-09-28T01:29:03.160Z,99214.59
2022-09-28T01:30:41.172Z,99214.50
2022-09-28T01:32:16.648Z,99217.22
2022-09-28T01:33:50.174Z,99219.00
2022-09-28T01:35:24.334Z,99215.34
2022-09-28T01:36:57.962Z,99206.72
2022-09-28T01:38:31.590Z,99205.88
2022-09-28T01:40:05.200Z,99203.16
2022-09-28T01:41:40.232Z,99197.25
2022-09-28T01:43:16.861Z,99201.66
2022-09-28T01:44:50.506Z,99204.47
2022-09-28T01:46:24.397Z,99207.28
2022-09-28T01:47:57.904Z,99210.00
2022-09-28T01:49:34.218Z,99211.78
2022-09-28T01:51:10.391Z,99210.75
2022-09-28T01:52:45.342Z,99208.13
2022-09-28T01:54:19.926Z,99206.25
2022-09-28T01:55:55.336Z,99207.94
2022-09-28T01:57:31.792Z,99211.34
2022-09-28T01:59:07.458Z,99196.59
2022-09-28T02:00:41.707Z,99211.44
2022-09-28T02:02:18.586Z,99206.16
2022-09-28T02:03:53.268Z,99197.44
2022-09-28T02:05:27.768Z,99197.34
2022-09-28T02:07:02.494Z,99195.34
2022-09-28T02:08:36.495Z,99196.13
2022-09-28T02:10:10.919Z,99192.63
2022-09-28T02:11:44.967Z,99193.56
2022-09-28T02:13:19.647Z,99191.88
2022-09-28T02:14:54.552Z,99190.94
2022-09-28T02:16:29.797Z,99198.75
2022-09-28T02:18:01.576Z,99195.34
2022-09-28T02:19:33.325Z,99187.47
2022-09-28T02:21:08.852Z,99189.47
2022-09-28T02:22:43.739Z,99199.41
2022-09-28T02:24:21.209Z,99193.56
2022-09-28T02:25:55.860Z,99202.38
2022-09-28T02:27:34.159Z,99184.91
2022-09-28T02:29:05.664Z,99198.06
2022-09-28T02:30:39.414Z,99196.09
2022-09-28T02:32:11.124Z,99196.94
2022-09-28T02:33:43.963Z,99182.97
2022-09-28T02:35:17.524Z,99197.13
2022-09-28T02:36:49.471Z,99182.41
2022-09-28T02:38:21.032Z,99192.94
2022-09-28T02:39:52.597Z,99197.97
2022-09-28T02:41:33.717Z,99200.50
2022-09-28T02:43:11.391Z,99203.91
2022-09-28T02:44:49.214Z,99202.88
2022-09-28T02:46:27.045Z,99193.03
2022-09-28T02:48:08.055Z,99191.16
2022-09-28T02:49:43.769Z,99194.63
2022-09-28T02:51:20.626Z,99197.91
2022-09-28T02:53:07.981Z,99194.25
2022-09-28T02:54:59.256Z,99196.97
2022-09-28T02:56:38.163Z,99189.25
2022-09-28T02:58:18.836Z,99194.63
2022-09-28T02:59:55.145Z,99189.47
2022-09-28T03:01:33.896Z,99199.59
2022-09-28T03:03:09.376Z,99193.56
2022-09-28T03:04:44.600Z,99201.84
2022-09-28T03:06:27.274Z,99190.31
2022-09-28T03:07:59.783Z,99204.19
2022-09-28T03:09:34.263Z,99199.69
2022-09-28T03:11:09.308Z,99206.63
2022-09-28T03:12:41.407Z,99196.69
2022-09-28T03:14:13.353Z,99198.00
2022-09-28T03:15:52.154Z,99202.03
2022-09-28T03:17:25.038Z,99219.16
2022-09-28T03:18:56.757Z,99211.97
2022-09-28T03:20:29.220Z,99210.88
2022-09-28T03:22:01.642Z,99204.84
2022-09-28T03:23:33.331Z,99209.19
2022-09-28T03:25:07.380Z,99205.06
2022-09-28T03:26:40.196Z,99209.34
2022-09-28T03:28:11.790Z,99202.31
2022-09-28T03:29:45.376Z,99215.59
2022-09-28T03:31:16.859Z,99207.31
2022-09-28T03:32:56.357Z,99208.06
2022-09-28T03:34:28.060Z,99210.59
2022-09-28T03:35:59.646Z,99205.16
2022-09-28T03:37:31.259Z,99204.84
2022-09-28T03:39:03.009Z,99209.00
2022-09-28T03:40:34.541Z,99206.19
2022-09-28T03:42:06.159Z,99210.19
2022-09-28T03:43:40.108Z,99204.84
2022-09-28T03:45:11.645Z,99205.78
2022-09-28T03:46:43.177Z,99215.38
2022-09-28T03:48:19.500Z,99216.69
2022-09-28T03:49:53.200Z,99207.97
2022-09-28T03:51:24.891Z,99208.06
2022-09-28T03:53:02.153Z,99206.34
2022-09-28T03:54:33.594Z,99202.22
2022-09-28T03:56:05.855Z,99205.78
2022-09-28T03:57:37.940Z,99214.03
2022-09-28T03:59:09.400Z,99203.22
2022-09-28T04:00:41.563Z,99209.66
2022-09-28T04:02:13.237Z,99210.19
2022-09-28T04:03:53.044Z,99201.28
2022-09-28T04:05:24.557Z,99204.09
2022-09-28T04:06:56.180Z,99213.56
2022-09-28T04:08:29.180Z,99202.47
2022-09-28T04:10:00.662Z,99207.72
2022-09-28T04:11:42.976Z,99208.03
2022-09-28T04:13:25.308Z,99213.06
2022-09-28T04:14:56.832Z,99207.13
2022-09-28T04:16:28.366Z,99207.31
2022-09-28T04:18:09.271Z,99209.69
2022-09-28T04:19:59.170Z,99207.59
2022-09-28T04:21:42.105Z,99207.44
2022-09-28T04:23:17.218Z,99205.31
2022-09-28T04:24:48.698Z,99209.53
2022-09-28T04:26:21.516Z,99215.72
2022-09-28T04:28:11.347Z,99220.22
2022-09-28T04:29:44.085Z,99210.56
2022-09-28T04:31:20.328Z,99220.22
2022-09-28T04:32:51.864Z,99214.22
2022-09-28T04:34:23.457Z,99211.75
2022-09-28T04:35:56.380Z,99218.66
2022-09-28T04:37:27.840Z,99215.09
2022-09-28T04:39:00.012Z,99222.06
2022-09-28T04:40:33.187Z,99215.09
2022-09-28T04:42:05.511Z,99212.84
2022-09-28T04:43:37.056Z,99219.19
2022-09-28T04:45:09.221Z,99209.91
2022-09-28T04:46:43.767Z,99206.72
2022-09-28T04:48:30.446Z,99204.56
2022-09-28T04:50:20.768Z,99208.72
2022-09-28T04:52:18.321Z,99210.28
2022-09-28T04:53:52.980Z,99199.06
2022-09-28T04:55:25.128Z,99207.19
2022-09-28T04:56:57.092Z,99213.13
2022-09-28T04:58:29.506Z,99214.53
2022-09-28T05:00:01.113Z,99203.25
2022-09-28T05:01:34.213Z,99202.88
2022-09-28T05:03:24.246Z,99213.22
2022-09-28T05:05:34.111Z,99199.97
2022-09-28T05:07:25.298Z,99204.19
2022-09-28T05:08:57.481Z,99214.50
2022-09-28T05:10:28.927Z,99203.91
2022-09-28T05:12:00.688Z,99203.63
2022-09-28T05:13:35.749Z,99210.69
2022-09-28T05:15:07.526Z,99200.00
2022-09-28T05:16:39.155Z,99207.66
2022-09-28T05:18:29.052Z,99210.78
2022-09-28T05:20:09.003Z,99216.69
2022-09-28T05:21:43.067Z,99206.09
2022-09-28T05:23:16.203Z,99216.59
2022-09-28T05:24:47.878Z,99216.53
2022-09-28T05:26:19.656Z,99221.66
2022-09-28T05:27:57.042Z,99210.03
2022-09-28T05:29:42.892Z,99221.56
2022-09-28T05:31:34.346Z,99222.41
2022-09-28T05:33:19.502Z,99229.53
2022-09-28T05:35:01.211Z,99220.09
2022-09-28T05:36:42.750Z,99222.81
2022-09-28T05:38:14.289Z,99218.09
2022-09-28T05:39:47.087Z,99220.44
2022-09-28T05:41:18.562Z,99226.47
2022-09-28T05:42:50.381Z,99215.75
2022-09-28T05:44:26.488Z,99223.47
2022-09-28T05:46:00.032Z,99221.56
2022-09-28T05:47:32.220Z,99219.72
2022-09-28T05:49:03.746Z,99230.50
2022-09-28T05:50:35.352Z,99231.72
2022-09-28T05:52:06.894Z,99222.50
2022-09-28T05:53:42.136Z,99229.09
2022-09-28T05:55:15.443Z,99235.28
2022-09-28T05:56:46.937Z,99231.91
2022-09-28T05:58:18.454Z,99235.19
2022-09-28T05:59:49.911Z,99235.00
2022-09-28T06:01:21.590Z,99237.66
2022-09-28T06:02:57.804Z,99241.66
2022-09-28T06:04:29.415Z,99236.22
2022-09-28T06:06:02.394Z,99240.19
2022-09-28T06:07:35.091Z,99231.00
2022-09-28T06:09:06.559Z,99233.44
2022-09-28T06:11:00.608Z,99230.44
2022-09-28T06:12:33.564Z,99237.84
2022-09-28T06:14:13.641Z,99241.88
2022-09-28T06:15:46.343Z,99253.25
2022-09-28T06:17:18.724Z,99239.88
2022-09-28T06:18:56.468Z,99237.19
2022-09-28T06:20:59.955Z,99241.41
2022-09-28T06:22:36.794Z,99244.69
2022-09-28T06:24:10.993Z,99240.09
2022-09-28T06:25:42.690Z,99250.97
2022-09-28T06:27:15.646Z,99246.16
2022-09-28T06:28:47.159Z,99247.66
2022-09-28T06:30:18.687Z,99250.22
2022-09-28T06:31:50.179Z,99255.03
2022-09-28T06:33:22.476Z,99254.81
2022-09-28T06:34:56.370Z,99247.69
2022-09-28T06:36:31.256Z,99256.91
2022-09-28T06:38:03.206Z,99256.50
2022-09-28T06:39:35.192Z,99262.91
2022-09-28T06:41:06.937Z,99267.13
2022-09-28T06:42:39.877Z,99268.44
2022-09-28T06:44:29.123Z,99277.34
2022-09-28T06:46:27.818Z,99273.97
2022-09-28T06:48:19.880Z,99279.50
2022-09-28T06:49:55.376Z,99274.88
2022-09-28T06:51:45.890Z,99277.91
2022-09-28T06:53:27.465Z,99279.88
2022-09-28T06:55:21.993Z,99272.19
2022-09-28T06:56:58.538Z,99282.44
2022-09-28T06:58:32.255Z,99280.16
2022-09-28T07:00:04.800Z,99284.75
2022-09-28T07:01:36.469Z,99285.44
2022-09-28T07:03:30.817Z,99286.38
2022-09-28T07:05:26.903Z,99292.22
2022-09-28T07:07:17.109Z,99281.09
2022-09-28T07:08:56.134Z,99288.63
2022-09-28T07:10:49.007Z,99286.91
2022-09-28T07:12:27.630Z,99290.47
2022-09-28T07:14:12.437Z,99299.38
2022-09-28T07:15:45.753Z,99294.22
2022-09-28T07:17:19.114Z,99297.25
2022-09-28T07:18:50.610Z,99296.09
2022-09-28T07:20:22.076Z,99295.81
2022-09-28T07:22:03.845Z,99303.34
2022-09-28T07:23:49.157Z,99299.38
2022-09-28T07:25:30.224Z,99298.09
2022-09-28T07:27:32.153Z,99294.22
2022-09-28T07:29:30.946Z,99296.56
2022-09-28T07:31:25.180Z,99300.41
2022-09-28T07:33:32.504Z,99301.75
2022-09-28T07:35:19.348Z,99301.06
2022-09-28T07:36:57.325Z,99299.56
2022-09-28T07:38:28.773Z,99307.56
2022-09-28T07:40:19.890Z,99309.41
2022-09-28T07:41:52.689Z,99302.31
2022-09-28T07:43:26.510Z,99308.13
2022-09-28T07:44:59.495Z,99309.91
2022-09-28T07:46:31.513Z,99312.78
2022-09-28T07:48:07.696Z,99313.44
2022-09-28T07:49:54.983Z,99310.69
2022-09-28T07:51:53.473Z,99312.72
2022-09-28T07:53:34.166Z,99318.22
2022-09-28T07:55:28.951Z,99320.00
2022-09-28T07:57:12.924Z,99312.34
2022-09-28T07:59:04.751Z,99322.47
2022-09-28T08:00:48.316Z,99321.16
2022-09-28T08:02:21.214Z,99326.00
2022-09-28T08:03:56.236Z,99333.31
2022-09-28T08:05:31.968Z,99328.25
2022-09-28T08:07:03.617Z,99326.88
2022-09-28T08:08:36.040Z,99330.34
2022-09-28T08:10:08.138Z,99342.16
2022-09-28T08:11:59.529Z,99340.84
2022-09-28T08:13:52.777Z,99336.66
2022-09-28T08:15:44.360Z,99342.75
2022-09-28T08:17:46.088Z,99350.03
2022-09-28T08:19:17.762Z,99354.34
2022-09-28T08:21:10.209Z,99348.91
2022-09-28T08:22:41.719Z,99357.81
2022-09-28T08:24:14.446Z,99358.38
2022-09-28T08:25:48.713Z,99347.84
2022-09-28T08:27:20.160Z,99347.81
2022-09-28T08:28:52.689Z,99353.03
2022-09-28T08:30:45.104Z,99361.94
2022-09-28T08:32:35.731Z,99345.50
2022-09-28T08:34:27.246Z,99358.16
2022-09-28T08:35:59.169Z,99358.75
2022-09-28T08:37:55.591Z,99365.53
2022-09-28T08:39:46.554Z,99367.25
2022-09-28T08:41:33.924Z,99358.56
2022-09-28T08:43:46.056Z,99353.03
2022-09-28T08:45:44.884Z,99360.63
2022-09-28T08:47:52.107Z,99371.13
2022-09-28T08:49:37.212Z,99369.50
2022-09-28T08:51:34.435Z,99368.38
2022-09-28T08:53:21.133Z,99367.59
2022-09-28T08:55:19.891Z,99365.22
2022-09-28T08:56:52.499Z,99365.75
2022-09-28T08:58:26.028Z,99375.06
2022-09-28T08:59:59.680Z,99376.69
2022-09-28T09:01:42.013Z,99377.78
2022-09-28T09:03:19.939Z,99384.25
2022-09-28T09:05:06.222Z,99372.44
2022-09-28T09:07:15.563Z,99378.38
2022-09-28T09:09:00.953Z,99374.22
2022-09-28T09:10:53.195Z,99384.28
2022-09-28T09:12:35.851Z,99379.13
2022-09-28T09:14:16.399Z,99381.88
2022-09-28T09:15:49.750Z,99379.88
2022-09-28T09:17:37.246Z,99387.91
2022-09-28T09:19:26.178Z,99385.28
2022-09-28T09:21:16.198Z,99389.41
2022-09-28T09:22:53.956Z,99384.44
2022-09-28T09:24:29.546Z,99393.00
2022-09-28T09:26:04.683Z,99391.66
2022-09-28T09:27:45.000Z,99389.41
2022-09-28T09:29:22.898Z,99389.63
2022-09-28T09:31:06.990Z,99399.13
2022-09-28T09:32:55.213Z,99392.34
2022-09-28T09:34:37.930Z,99391.22
2022-09-28T09:37:02.817Z,99395.44
2022-09-28T09:38:55.386Z,99390.78
2022-09-28T09:40:52.870Z,99396.31
2022-09-28T09:42:51.474Z,99389.91
2022-09-28T09:44:57.045Z,99395.63
2022-09-28T09:46:54.363Z,99400.38
2022-09-28T09:48:46.550Z,99401.28
2022-09-28T09:50:25.132Z,99407.66
2022-09-28T09:52:00.699Z,99405.22
2022-09-28T09:53:38.517Z,99395.94
2022-09-28T09:55:14.751Z,99396.13
2022-09-28T09:56:58.995Z,99395.56
2022-09-28T09:58:52.204Z,99404.03
2022-09-28T10:00:26.742Z,99393.41
2022-09-28T10:02:22.919Z,99396.63
2022-09-28T10:04:00.535Z,99398.34
2022-09-28T10:05:34.547Z,99395.88
2022-09-28T10:07:09.547Z,99396.38
2022-09-28T10:08:44.332Z,99397.22
2022-09-28T10:10:20.485Z,99393.69
2022-09-28T10:11:54.348Z,99395.88
2022-09-28T10:13:26.172Z,99391.09
2022-09-28T10:15:02.067Z,99392.00
2022-09-28T10:16:34.609Z,99391.66
2022-09-28T10:18:11.083Z,99401.44
2022-09-28T10:20:01.517Z,99400.22
2022-09-28T10:21:54.892Z,99386.78
2022-09-28T10:23:33.927Z,99405.34
2022-09-28T10:25:08.833Z,99396.69
2022-09-28T10:26:41.898Z,99401.84
2022-09-28T10:28:19.205Z,99399.19
2022-09-28T10:29:52.393Z,99395.06
2022-09-28T10:31:34.396Z,99399.53
2022-09-28T10:33:26.040Z,99399.28
2022-09-28T10:35:11.724Z,99408.69
2022-09-28T10:36:49.489Z,99404.13
2022-09-28T10:38:22.865Z,99402.69
2022-09-28T10:40:02.160Z,99395.72
2022-09-28T10:41:48.629Z,99406.59
2022-09-28T10:43:23.340Z,99400.34
2022-09-28T10:44:59.133Z,99398.53
2022-09-28T10:46:41.325Z,99404.28
2022-09-28T10:48:19.533Z,99408.22
2022-09-28T10:49:52.237Z,99412.19
2022-09-28T10:51:40.080Z,99408.69
2022-09-28T10:53:17.077Z,99403.75
2022-09-28T10:55:32.749Z,99401.22
2022-09-28T10:57:24.630Z,99413.03
2022-09-28T10:59:01.668Z,99413.28
2022-09-28T11:00:49.132Z,99408.69
2022-09-28T11:02:25.357Z,99411.06
2022-09-28T11:04:01.789Z,99408.19
2022-09-28T11:05:33.598Z,99409.16
2022-09-28T11:07:17.352Z,99407.47
2022-09-28T11:08:49.435Z,99407.28
2022-09-28T11:10:26.281Z,99408.38
2022-09-28T11:12:04.964Z,99398.78
2022-09-28T11:13:54.090Z,99398.78
2022-09-28T11:15:30.920Z,99403.69
2022-09-28T11:17:23.804Z,99401.50
2022-09-28T11:18:56.289Z,99401.00
2022-09-28T11:20:34.015Z,99404.06
2022-09-28T11:22:20.185Z,99401.69
2022-09-28T11:24:01.147Z,99404.69
2022-09-28T11:25:33.814Z,99397.94
2022-09-28T11:27:18.778Z,99400.34
2022-09-28T11:28:51.116Z,99404.94
2022-09-28T11:30:30.029Z,99395.53
2022-09-28T11:32:21.789Z,99397.13
2022-09-28T11:34:15.086Z,99396.28
2022-09-28T11:36:05.015Z,99396.28
2022-09-28T11:37:52.949Z,99398.19
2022-09-28T11:39:43.862Z,99400.22
2022-09-28T11:41:27.693Z,99397.91
2022-09-28T11:44:44.809Z,99396.47
2022-09-28T11:46:25.889Z,99403.66
2022-09-28T11:48:01.727Z,99402.59
2022-09-28T11:49:38.011Z,99403.09
2022-09-28T11:51:15.427Z,99406.25
2022-09-28T11:52:50.680Z,99404.44
2022-09-28T11:54:26.113Z,99406.72
2022-09-28T11:55:59.631Z,99400.53
2022-09-28T11:57:36.137Z,99415.50
2022-09-28T11:59:12.436Z,99402.75
2022-09-28T12:00:51.670Z,99409.13
2022-09-28T12:02:29.930Z,99412.38
2022-09-28T12:04:12.002Z,99409.00
2022-09-28T12:05:47.315Z,99408.91
2022-09-28T12:07:23.129Z,99413.50
2022-09-28T12:08:56.430Z,99412.94
2022-09-28T12:10:51.060Z,99406.59
2022-09-28T12:12:32.631Z,99405.63
2022-09-28T12:14:10.327Z,99404.94
2022-09-28T12:16:13.280Z,99400.72
2022-09-28T12:17:41.097Z,99392.50
2022-09-28T12:19:16.078Z,99401.16
2022-09-28T12:20:49.240Z,99400.09
2022-09-28T12:22:23.113Z,99401.50
2022-09-28T12:23:56.934Z,99396.13
2022-09-28T12:25:33.139Z,99395.31
2022-09-28T12:27:06.537Z,99396.38
2022-09-28T12:28:39.759Z,99403.63
2022-09-28T12:30:14.128Z,99395.16
2022-09-28T12:31:52.026Z,99399.38
2022-09-28T12:33:23.581Z,99400.34
2022-09-28T12:34:58.452Z,99398.50
2022-09-28T12:36:35.751Z,99397.38
2022-09-28T12:38:20.750Z,99404.06
2022-09-28T12:40:03.751Z,99389.06
2022-09-28T12:41:40.303Z,99388.66
2022-09-28T12:43:28.981Z,99389.75
2022-09-28T12:45:09.219Z,99398.75
2022-09-28T12:46:48.847Z,99385.97
2022-09-28T12:48:36.298Z,99391.41
2022-09-28T12:52:15.628Z,99399.78
2022-09-28T12:53:56.228Z,99397.59
2022-09-28T12:55:36.049Z,99398.91
2022-09-28T12:57:18.557Z,99398.22
2022-09-28T12:59:00.653Z,99391.09
2022-09-28T13:00:36.249Z,99395.63
2022-09-28T13:02:28.627Z,99389.00
2022-09-28T13:04:12.745Z,99397.94
2022-09-28T13:05:59.879Z,99393.47
2022-09-28T13:07:37.796Z,99397.38
2022-09-28T13:09:16.845Z,99391.47
2022-09-28T13:10:52.340Z,99394.81
2022-09-28T13:12:26.223Z,99387.94
2022-09-28T13:14:04.765Z,99394.09
2022-09-28T13:15:40.007Z,99390.06
2022-09-28T13:17:17.652Z,99395.13
2022-09-28T13:18:53.453Z,99388.22
2022-09-28T13:20:32.230Z,99401.34
2022-09-28T13:22:15.881Z,99394.16
2022-09-28T13:23:50.283Z,99387.97
2022-09-28T13:25:23.627Z,99390.91
2022-09-28T13:26:56.654Z,99386.31
2022-09-28T13:28:29.019Z,99385.34
2022-09-28T13:30:02.941Z,99384.63
2022-09-28T13:31:37.227Z,99378.16
2022-09-28T13:33:16.560Z,99384.88
2022-09-28T13:34:50.377Z,99376.97
2022-09-28T13:36:35.326Z,99386.34
2022-09-28T13:38:25.539Z,99380.91
2022-09-28T13:39:58.991Z,99380.91
2022-09-28T13:41:32.072Z,99384.25
2022-09-28T13:43:09.451Z,99386.22
2022-09-28T13:44:48.115Z,99380.66
2022-09-28T13:46:28.249Z,99376.50
2022-09-28T13:48:05.226Z,99374.94
2022-09-28T13:49:41.484Z,99374.97
2022-09-28T13:51:22.620Z,99383.03
2022-09-28T13:53:01.238Z,99380.44
2022-09-28T13:54:41.965Z,99382.63
2022-09-28T13:56:22.127Z,99380.78
2022-09-28T13:57:56.885Z,99386.16
2022-09-28T13:59:29.678Z,99384.03
2022-09-28T14:01:04.159Z,99383.13
2022-09-28T14:02:37.002Z,99384.00
2022-09-28T14:04:13.877Z,99385.56
2022-09-28T14:05:47.264Z,99386.28
2022-09-28T14:07:20.451Z,99392.69
2022-09-28T14:09:21.821Z,99388.84
2022-09-28T14:10:54.646Z,99399.44
2022-09-28T14:12:43.195Z,99398.97
2022-09-28T14:14:25.517Z,99406.56
2022-09-28T14:16:19.679Z,99401.28
2022-09-28T14:17:59.098Z,99404.41
2022-09-28T14:19:33.091Z,99406.00
2022-09-28T14:21:22.921Z,99401.50
2022-09-28T14:23:03.567Z,99402.53
2022-09-28T14:24:43.771Z,99400.06
2022-09-28T14:26:25.941Z,99405.66
2022-09-28T14:28:04.867Z,99404.63
2022-09-28T14:29:37.239Z,99407.75
2022-09-28T14:31:14.156Z,99399.06
2022-09-28T14:32:49.819Z,99405.78
2022-09-28T14:34:26.978Z,99406.50
2022-09-28T14:36:01.950Z,99408.38
2022-09-28T14:37:53.628Z,99401.88
2022-09-28T14:39:46.423Z,99406.50
2022-09-28T14:41:29.647Z,99405.50
2022-09-28T14:43:25.176Z,99407.25
2022-09-28T14:45:15.212Z,99406.91
2022-09-28T14:46:47.627Z,99412.03
2022-09-28T14:48:20.369Z,99404.78
2022-09-28T14:50:00.127Z,99402.53
2022-09-28T14:51:44.389Z,99403.63
2022-09-28T14:53:20.155Z,99403.81
2022-09-28T14:54:53.524Z,99413.72
2022-09-28T14:56:29.217Z,99409.53
2022-09-28T14:58:04.662Z,99401.28
2022-09-28T14:59:42.959Z,99411.91
2022-09-28T15:01:17.149Z,99413.03
2022-09-28T15:02:49.885Z,99414.69
2022-09-28T15:04:23.814Z,99411.91
2022-09-28T15:05:55.558Z,99419.16
2022-09-28T15:07:29.233Z,99421.00
2022-09-28T15:09:01.986Z,99421.25
2022-09-28T15:10:35.461Z,99419.16
2022-09-28T15:12:15.017Z,99422.81
2022-09-28T15:13:46.618Z,99425.59
2022-09-28T15:15:25.779Z,99426.81
2022-09-28T15:16:57.782Z,99424.78
2022-09-28T15:18:57.349Z,99428.09
2022-09-28T15:20:30.414Z,99430.31
2022-09-28T15:22:01.957Z,99429.16
2022-09-28T15:23:34.690Z,99432.78
2022-09-28T15:25:13.295Z,99431.53
2022-09-28T15:26:48.003Z,99445.56
2022-09-28T15:28:22.152Z,99449.25
2022-09-28T15:29:57.848Z,99454.81
2022-09-28T15:31:34.325Z,99450.59
2022-09-28T15:33:24.446Z,99444.69
2022-09-28T15:34:57.252Z,99457.22
2022-09-28T15:36:29.851Z,99475.56
2022-09-28T15:38:01.401Z,99492.47
2022-09-28T15:39:34.145Z,99487.22
2022-09-28T15:41:07.140Z,99497.44
2022-09-28T15:42:38.773Z,99496.25
2022-09-28T15:44:20.959Z,99490.25
2022-09-28T15:46:01.511Z,99489.25
2022-09-28T15:47:35.130Z,99492.09
2022-09-28T15:49:08.466Z,99497.34
2022-09-28T15:50:45.748Z,99499.78
2022-09-28T15:52:22.815Z,99501.97
2022-09-28T15:53:58.181Z,99504.94
2022-09-28T15:55:31.451Z,99503.47
2022-09-28T15:57:03.027Z,99511.78
2022-09-28T15:58:34.464Z,99505.09
2022-09-28T16:00:21.893Z,99511.13
2022-09-28T16:02:05.182Z,99512.06
2022-09-28T16:03:40.944Z,99507.56
2022-09-28T16:05:29.567Z,99508.09
2022-09-28T16:07:20.162Z,99518.53
2022-09-28T16:08:51.684Z,99513.19
2022-09-28T16:10:33.606Z,99507.91
2022-09-28T16:12:09.102Z,99507.53
2022-09-28T16:13:46.303Z,99513.50
2022-09-28T16:15:20.563Z,99512.00
2022-09-28T16:16:52.419Z,99513.00
2022-09-28T16:18:25.470Z,99515.75
2022-09-28T16:19:58.449Z,99513.94
2022-09-28T16:21:42.582Z,99518.66
2022-09-28T16:23:19.419Z,99514.31
2022-09-28T16:24:54.447Z,99517.97
2022-09-28T16:26:29.780Z,99530.09
2022-09-28T16:28:01.307Z,99523.88
2022-09-28T16:29:36.549Z,99526.34
2022-09-28T16:31:24.098Z,99528.13
2022-09-28T16:32:56.829Z,99528.69
2022-09-28T16:34:30.124Z,99530.66
2022-09-28T16:36:05.094Z,99532.16
2022-09-28T16:37:36.869Z,99532.63
2022-09-28T16:39:11.665Z,99537.72
2022-09-28T16:40:46.090Z,99535.19
2022-09-28T16:42:17.654Z,99533.75
2022-09-28T16:43:54.652Z,99534.59
2022-09-28T16:45:26.490Z,99540.72
2022-09-28T16:47:00.124Z,99542.69
2022-09-28T16:48:33.479Z,99545.50
2022-09-28T16:50:06.412Z,99548.31
2022-09-28T16:51:40.108Z,99543.56
2022-09-28T16:53:31.857Z,99545.53
2022-09-28T16:55:38.746Z,99548.00
2022-09-28T16:57:07.852Z,99540.59
2022-09-28T16:58:39.313Z,99539.94
2022-09-28T17:00:14.418Z,99540.31
2022-09-28T17:01:45.878Z,99545.28
2022-09-28T17:03:18.518Z,99537.00
2022-09-28T17:04:50.213Z,99543.09
2022-09-28T17:06:25.185Z,99543.94
2022-09-28T17:07:59.665Z,99544.06
2022-09-28T17:09:31.106Z,99543.22
2022-09-28T17:11:14.896Z,99534.47
2022-09-28T17:12:49.313Z,99537.00
2022-09-28T17:14:23.330Z,99528.66
2022-09-28T17:15:54.849Z,99529.84
2022-09-28T17:17:29.803Z,99533.72
2022-09-28T17:19:01.361Z,99527.81
2022-09-28T17:20:33.760Z,99522.59
2022-09-28T17:22:06.674Z,99525.22
2022-09-28T17:23:39.542Z,99514.28
2022-09-28T17:25:12.774Z,99524.22
2022-09-28T17:26:45.642Z,99516.66
2022-09-28T17:28:19.439Z,99517.94
2022-09-28T17:29:51.358Z,99523.22
2022-09-28T17:31:23.002Z,99522.09
2022-09-28T17:32:54.524Z,99533.50
2022-09-28T17:34:26.065Z,99529.16
2022-09-28T17:36:00.002Z,99539.06
2022-09-28T17:37:34.398Z,99536.53
2022-09-28T17:39:10.499Z,99537.75
2022-09-28T17:40:42.483Z,99540.72
2022-09-28T17:42:13.992Z,99546.19
2022-09-28T17:43:45.670Z,99541.66
2022-09-28T17:45:18.129Z,99543.34
2022-09-28T17:46:51.174Z,99548.72
2022-09-28T17:48:23.293Z,99543.25
2022-09-28T17:49:54.756Z,99542.50
2022-09-28T17:51:27.022Z,99541.56
2022-09-28T17:52:59.918Z,99550.41
2022-09-28T17:54:33.690Z,99550.41
2022-09-28T17:56:05.390Z,99549.66
2022-09-28T17:57:36.869Z,99552.59
2022-09-28T17:59:10.678Z,99553.53
2022-09-28T18:00:42.321Z,99554.47
2022-09-28T18:02:14.034Z,99550.78
2022-09-28T18:03:45.682Z,99553.25
2022-09-28T18:05:19.458Z,99561.81
2022-09-28T18:06:51.328Z,99556.53
2022-09-28T18:08:22.806Z,99558.63
2022-09-28T18:09:58.263Z,99558.81
2022-09-28T18:11:30.051Z,99557.22
2022-09-28T18:13:01.526Z,99559.00
2022-09-28T18:14:33.081Z,99556.25
2022-09-28T18:16:04.954Z,99557.97
2022-09-28T18:17:36.671Z,99551.75
2022-09-28T18:19:08.161Z,99553.53
2022-09-28T18:20:41.235Z,99552.69
2022-09-28T18:22:12.722Z,99554.47
2022-09-28T18:23:44.164Z,99563.31
2022-09-28T18:25:17.162Z,99561.00
2022-09-28T18:26:48.627Z,99567.50
2022-09-28T18:28:21.517Z,99560.81
2022-09-28T18:29:53.033Z,99568.84
2022-09-28T18:31:24.715Z,99564.59
2022-09-28T18:32:56.251Z,99575.16
2022-09-28T18:34:27.711Z,99571.09
2022-09-28T18:35:59.167Z,99567.03
2022-09-28T18:37:30.708Z,99570.84
2022-09-28T18:39:02.257Z,99565.72
2022-09-28T18:40:35.626Z,99574.84
2022-09-28T18:42:07.221Z,99572.59
2022-09-28T18:43:38.696Z,99578.16
2022-09-28T18:45:11.193Z,99574.75
2022-09-28T18:46:42.879Z,99574.00
2022-09-28T18:48:14.477Z,99576.63
2022-09-28T18:49:46.865Z,99577.56
2022-09-28T18:51:19.439Z,99575.88
2022-09-28T18:52:50.988Z,99586.72
2022-09-28T18:54:22.700Z,99573.72
2022-09-28T18:55:57.542Z,99581.63
2022-09-28T18:57:28.979Z,99584.16
2022-09-28T18:59:00.556Z,99590.19
2022-09-28T19:00:32.148Z,99591.81
2022-09-28T19:02:03.833Z,99585.47
2022-09-28T19:03:35.601Z,99593.19
2022-09-28T19:05:07.396Z,99582.75
2022-09-28T19:06:44.283Z,99587.16
2022-09-28T19:08:15.833Z,99589.16
2022-09-28T19:09:47.325Z,99584.94
2022-09-28T19:11:20.180Z,99585.00